sensor_id;sensor_type;location;lat;lon;timestamp;temperature;humidity
2106;DHT22;1059;52.548;13.408;2023-03-14T00:00:06;13.20;99.90
2106;DHT22;1059;52.548;13.408;2023-03-14T00:02:33;13.10;99.90
2106;DHT22;1059;52.548;13.408;2023-03-14T00:05:01;13.10;99.90
2106;DHT22;1059;52.548;13.408;2023-03-14T00:07:32;13.00;99.90
2106;DHT22;1059;52.548;13.408;2023-03-14T00:10:01;13.00;99.90
2106;DHT22;1059;52.548;13.408;2023-03-14T00:12:29;13.00;99.90
2106;DHT22;1059;52.548;13.408;2023-03-14T00:14:56;12.90;99.90
2106;DHT22;1059;52.548;13.408;2023-03-14T00:17:26;12.80;99.90
2106;DHT22;1059;52.548;13.408;2023-03-14T00:19:53;12.80;99.90
2106;DHT22;1059;52.548;13.408;2023-03-14T00:22:20;12.80;99.90
2106;DHT22;1059;52.548;13.408;2023-03-14T00:24:47;12.80;99.90
2106;DHT22;1059;52.548;13.408;2023-03-14T00:27:14;12.70;99.90
2106;DHT22;1059;52.548;13.408;2023-03-14T00:29:42;12.60;99.90
2106;DHT22;1059;52.548;13.408;2023-03-14T00:32:10;12.60;99.90
2106;DHT22;1059;52.548;13.408;2023-03-14T00:34:38;12.60;99.90
2106;DHT22;1059;52.548;13.408;2023-03-14T00:37:05;12.60;99.90
2106;DHT22;1059;52.548;13.408;2023-03-14T00:39:32;12.50;99.90
2106;DHT22;1059;52.548;13.408;2023-03-14T00:41:59;12.50;99.90
2106;DHT22;1059;52.548;13.408;2023-03-14T00:44:25;12.50;99.90
2106;DHT22;1059;52.548;13.408;2023-03-14T00:46:52;12.40;99.90
2106;DHT22;1059;52.548;13.408;2023-03-14T00:49:19;12.40;99.90
2106;DHT22;1059;52.548;13.408;2023-03-14T00:51:47;12.30;99.90
2106;DHT22;1059;52.548;13.408;2023-03-14T00:54:14;12.30;99.90
2106;DHT22;1059;52.548;13.408;2023-03-14T00:56:41;12.30;99.90
2106;DHT22;1059;52.548;13.408;2023-03-14T00:59:08;12.30;99.90
2106;DHT22;1059;52.548;13.408;2023-03-14T01:01:35;12.30;99.90
2106;DHT22;1059;52.548;13.408;2023-03-14T01:04:02;12.20;99.90
2106;DHT22;1059;52.548;13.408;2023-03-14T01:06:29;12.20;99.90
2106;DHT22;1059;52.548;13.408;2023-03-14T01:08:57;12.20;99.90
2106;DHT22;1059;52.548;13.408;2023-03-14T01:11:27;12.10;99.90
2106;DHT22;1059;52.548;13.408;2023-03-14T01:13:54;12.00;99.90
2106;DHT22;1059;52.548;13.408;2023-03-14T01:16:22;12.00;99.90
2106;DHT22;1059;52.548;13.408;2023-03-14T01:18:50;12.00;99.90
2106;DHT22;1059;52.548;13.408;2023-03-14T01:21:19;12.10;99.90
2106;DHT22;1059;52.548;13.408;2023-03-14T01:23:48;12.10;99.90
2106;DHT22;1059;52.548;13.408;2023-03-14T01:26:17;12.10;99.90
2106;DHT22;1059;52.548;13.408;2023-03-14T01:28:45;12.10;99.90
2106;DHT22;1059;52.548;13.408;2023-03-14T01:31:13;12.10;99.90
2106;DHT22;1059;52.548;13.408;2023-03-14T01:33:40;12.00;99.90
2106;DHT22;1059;52.548;13.408;2023-03-14T01:36:09;11.90;99.90
2106;DHT22;1059;52.548;13.408;2023-03-14T01:38:37;11.90;99.90
2106;DHT22;1059;52.548;13.408;2023-03-14T01:41:05;11.90;99.90
2106;DHT22;1059;52.548;13.408;2023-03-14T01:43:33;12.00;99.90
2106;DHT22;1059;52.548;13.408;2023-03-14T01:46:25;12.10;99.90
2106;DHT22;1059;52.548;13.408;2023-03-14T01:48:59;12.00;99.90
2106;DHT22;1059;52.548;13.408;2023-03-14T01:51:31;12.00;99.90
2106;DHT22;1059;52.548;13.408;2023-03-14T01:54:04;12.00;99.90
2106;DHT22;1059;52.548;13.408;2023-03-14T01:56:33;12.10;99.90
2106;DHT22;1059;52.548;13.408;2023-03-14T01:59:04;12.10;99.90
2106;DHT22;1059;52.548;13.408;2023-03-14T02:01:33;12.10;99.90
2106;DHT22;1059;52.548;13.408;2023-03-14T02:04:02;12.00;99.90
2106;DHT22;1059;52.548;13.408;2023-03-14T02:06:35;11.90;99.90
2106;DHT22;1059;52.548;13.408;2023-03-14T02:09:05;11.90;99.90
2106;DHT22;1059;52.548;13.408;2023-03-14T02:11:32;11.90;99.90
2106;DHT22;1059;52.548;13.408;2023-03-14T02:14:01;11.90;99.90
2106;DHT22;1059;52.548;13.408;2023-03-14T02:16:30;11.90;99.90
2106;DHT22;1059;52.548;13.408;2023-03-14T02:18:57;11.90;99.90
2106;DHT22;1059;52.548;13.408;2023-03-14T02:21:34;11.90;99.90
2106;DHT22;1059;52.548;13.408;2023-03-14T02:24:08;11.80;99.90
2106;DHT22;1059;52.548;13.408;2023-03-14T02:26:39;11.90;99.90
2106;DHT22;1059;52.548;13.408;2023-03-14T02:29:09;11.90;99.90
2106;DHT22;1059;52.548;13.408;2023-03-14T02:31:36;11.90;99.90
2106;DHT22;1059;52.548;13.408;2023-03-14T02:34:03;11.90;99.90
2106;DHT22;1059;52.548;13.408;2023-03-14T02:36:31;11.90;99.90
2106;DHT22;1059;52.548;13.408;2023-03-14T02:39:05;12.00;99.90
2106;DHT22;1059;52.548;13.408;2023-03-14T02:41:34;12.00;99.90
2106;DHT22;1059;52.548;13.408;2023-03-14T02:44:01;12.00;99.90
2106;DHT22;1059;52.548;13.408;2023-03-14T02:46:29;12.00;99.90
2106;DHT22;1059;52.548;13.408;2023-03-14T02:48:59;12.00;99.90
2106;DHT22;1059;52.548;13.408;2023-03-14T02:51:29;11.90;99.90
2106;DHT22;1059;52.548;13.408;2023-03-14T02:53:56;11.90;99.90
2106;DHT22;1059;52.548;13.408;2023-03-14T02:56:23;11.90;99.90
2106;DHT22;1059;52.548;13.408;2023-03-14T02:58:50;11.80;99.90
2106;DHT22;1059;52.548;13.408;2023-03-14T03:01:16;11.80;99.90
2106;DHT22;1059;52.548;13.408;2023-03-14T03:03:45;11.80;99.90
2106;DHT22;1059;52.548;13.408;2023-03-14T03:06:12;11.80;99.90
2106;DHT22;1059;52.548;13.408;2023-03-14T03:08:39;11.90;99.90
2106;DHT22;1059;52.548;13.408;2023-03-14T03:11:06;11.80;99.90
2106;DHT22;1059;52.548;13.408;2023-03-14T03:13:33;11.70;99.90
2106;DHT22;1059;52.548;13.408;2023-03-14T03:16:00;11.70;99.90
2106;DHT22;1059;52.548;13.408;2023-03-14T03:18:26;11.70;99.90
2106;DHT22;1059;52.548;13.408;2023-03-14T03:20:55;11.70;99.90
2106;DHT22;1059;52.548;13.408;2023-03-14T03:23:21;11.70;99.90
2106;DHT22;1059;52.548;13.408;2023-03-14T03:25:49;11.70;99.90
2106;DHT22;1059;52.548;13.408;2023-03-14T03:28:16;11.70;99.90
2106;DHT22;1059;52.548;13.408;2023-03-14T03:30:44;11.70;99.90
2106;DHT22;1059;52.548;13.408;2023-03-14T03:33:11;11.70;99.90
2106;DHT22;1059;52.548;13.408;2023-03-14T03:35:43;11.70;99.90
2106;DHT22;1059;52.548;13.408;2023-03-14T03:38:11;11.70;99.90
2106;DHT22;1059;52.548;13.408;2023-03-14T03:40:38;11.70;99.90
2106;DHT22;1059;52.548;13.408;2023-03-14T03:43:05;11.70;99.90
2106;DHT22;1059;52.548;13.408;2023-03-14T03:45:32;11.70;99.90
2106;DHT22;1059;52.548;13.408;2023-03-14T03:47:59;11.70;99.90
2106;DHT22;1059;52.548;13.408;2023-03-14T03:50:26;11.70;99.90
2106;DHT22;1059;52.548;13.408;2023-03-14T03:52:53;11.70;99.90
2106;DHT22;1059;52.548;13.408;2023-03-14T03:55:21;11.70;99.90
2106;DHT22;1059;52.548;13.408;2023-03-14T03:57:48;11.70;99.90
2106;DHT22;1059;52.548;13.408;2023-03-14T04:00:15;11.60;99.90
2106;DHT22;1059;52.548;13.408;2023-03-14T04:02:42;11.50;99.90
2106;DHT22;1059;52.548;13.408;2023-03-14T04:05:09;11.60;99.90
2106;DHT22;1059;52.548;13.408;2023-03-14T04:07:36;11.50;99.90
2106;DHT22;1059;52.548;13.408;2023-03-14T04:10:03;11.50;99.90
2106;DHT22;1059;52.548;13.408;2023-03-14T04:12:32;11.50;99.90
2106;DHT22;1059;52.548;13.408;2023-03-14T04:14:58;11.50;99.90
2106;DHT22;1059;52.548;13.408;2023-03-14T04:17:25;11.50;99.90
2106;DHT22;1059;52.548;13.408;2023-03-14T04:19:52;11.60;99.90
2106;DHT22;1059;52.548;13.408;2023-03-14T04:22:19;11.60;99.90
2106;DHT22;1059;52.548;13.408;2023-03-14T04:24:46;11.50;99.90
2106;DHT22;1059;52.548;13.408;2023-03-14T04:27:13;11.50;99.90
2106;DHT22;1059;52.548;13.408;2023-03-14T04:29:42;11.50;99.90
2106;DHT22;1059;52.548;13.408;2023-03-14T04:32:09;11.50;99.90
2106;DHT22;1059;52.548;13.408;2023-03-14T04:34:36;11.50;99.90
2106;DHT22;1059;52.548;13.408;2023-03-14T04:37:03;11.60;99.90
2106;DHT22;1059;52.548;13.408;2023-03-14T04:39:30;11.50;99.90
2106;DHT22;1059;52.548;13.408;2023-03-14T04:41:57;11.60;99.90
2106;DHT22;1059;52.548;13.408;2023-03-14T04:44:24;11.50;99.90
2106;DHT22;1059;52.548;13.408;2023-03-14T04:46:52;11.50;99.90
2106;DHT22;1059;52.548;13.408;2023-03-14T04:49:19;11.50;99.90
2106;DHT22;1059;52.548;13.408;2023-03-14T04:51:46;11.50;99.90
2106;DHT22;1059;52.548;13.408;2023-03-14T04:54:12;11.50;99.90
2106;DHT22;1059;52.548;13.408;2023-03-14T04:56:39;11.50;99.90
2106;DHT22;1059;52.548;13.408;2023-03-14T04:59:06;11.50;99.90
2106;DHT22;1059;52.548;13.408;2023-03-14T05:01:33;11.50;99.90
2106;DHT22;1059;52.548;13.408;2023-03-14T05:04:02;11.50;99.90
2106;DHT22;1059;52.548;13.408;2023-03-14T05:06:29;11.50;99.90
2106;DHT22;1059;52.548;13.408;2023-03-14T05:08:56;11.50;99.90
2106;DHT22;1059;52.548;13.408;2023-03-14T05:11:22;11.50;99.90
2106;DHT22;1059;52.548;13.408;2023-03-14T05:13:49;11.60;99.90
2106;DHT22;1059;52.548;13.408;2023-03-14T05:16:16;11.50;99.90
2106;DHT22;1059;52.548;13.408;2023-03-14T05:18:43;11.50;99.90
2106;DHT22;1059;52.548;13.408;2023-03-14T05:21:11;11.50;99.90
2106;DHT22;1059;52.548;13.408;2023-03-14T05:23:38;11.50;99.90
2106;DHT22;1059;52.548;13.408;2023-03-14T05:26:05;11.50;99.90
2106;DHT22;1059;52.548;13.408;2023-03-14T05:28:32;11.50;99.90
2106;DHT22;1059;52.548;13.408;2023-03-14T05:30:59;11.50;99.90
2106;DHT22;1059;52.548;13.408;2023-03-14T05:33:26;11.50;99.90
2106;DHT22;1059;52.548;13.408;2023-03-14T05:35:53;11.50;99.90
2106;DHT22;1059;52.548;13.408;2023-03-14T05:38:21;11.50;99.90
2106;DHT22;1059;52.548;13.408;2023-03-14T05:40:48;11.50;99.90
2106;DHT22;1059;52.548;13.408;2023-03-14T05:43:14;11.50;99.90
2106;DHT22;1059;52.548;13.408;2023-03-14T05:45:42;11.50;99.90
2106;DHT22;1059;52.548;13.408;2023-03-14T05:48:09;11.50;99.90
2106;DHT22;1059;52.548;13.408;2023-03-14T05:50:36;11.50;99.90
2106;DHT22;1059;52.548;13.408;2023-03-14T05:53:03;11.50;99.90
2106;DHT22;1059;52.548;13.408;2023-03-14T05:55:31;11.50;99.90
2106;DHT22;1059;52.548;13.408;2023-03-14T05:57:58;11.50;99.90
2106;DHT22;1059;52.548;13.408;2023-03-14T06:00:25;11.50;99.90
2106;DHT22;1059;52.548;13.408;2023-03-14T06:02:52;11.40;99.90
2106;DHT22;1059;52.548;13.408;2023-03-14T06:05:19;11.50;99.90
2106;DHT22;1059;52.548;13.408;2023-03-14T06:07:46;11.50;99.90
2106;DHT22;1059;52.548;13.408;2023-03-14T06:10:13;11.50;99.90
2106;DHT22;1059;52.548;13.408;2023-03-14T06:12:41;11.50;99.90
2106;DHT22;1059;52.548;13.408;2023-03-14T06:15:08;11.50;99.90
2106;DHT22;1059;52.548;13.408;2023-03-14T06:17:35;11.50;99.90
2106;DHT22;1059;52.548;13.408;2023-03-14T06:20:02;11.60;99.90
2106;DHT22;1059;52.548;13.408;2023-03-14T06:22:29;11.60;99.90
2106;DHT22;1059;52.548;13.408;2023-03-14T06:24:56;11.60;99.90
2106;DHT22;1059;52.548;13.408;2023-03-14T06:27:23;11.60;99.90
2106;DHT22;1059;52.548;13.408;2023-03-14T06:29:51;11.60;99.90
2106;DHT22;1059;52.548;13.408;2023-03-14T06:32:18;11.60;99.90
2106;DHT22;1059;52.548;13.408;2023-03-14T06:34:46;11.60;99.90
2106;DHT22;1059;52.548;13.408;2023-03-14T06:37:13;11.60;99.90
2106;DHT22;1059;52.548;13.408;2023-03-14T06:39:40;11.60;99.90
2106;DHT22;1059;52.548;13.408;2023-03-14T06:42:07;11.60;99.90
2106;DHT22;1059;52.548;13.408;2023-03-14T06:44:34;11.70;99.90
2106;DHT22;1059;52.548;13.408;2023-03-14T06:47:02;11.70;99.90
2106;DHT22;1059;52.548;13.408;2023-03-14T06:49:29;11.70;99.90
2106;DHT22;1059;52.548;13.408;2023-03-14T06:51:56;11.80;99.90
2106;DHT22;1059;52.548;13.408;2023-03-14T06:54:23;11.90;99.90
2106;DHT22;1059;52.548;13.408;2023-03-14T06:56:49;11.90;99.90
2106;DHT22;1059;52.548;13.408;2023-03-14T06:59:16;11.90;99.90
2106;DHT22;1059;52.548;13.408;2023-03-14T07:01:43;12.00;99.90
2106;DHT22;1059;52.548;13.408;2023-03-14T07:04:11;12.00;99.90
2106;DHT22;1059;52.548;13.408;2023-03-14T07:06:38;12.00;99.90
2106;DHT22;1059;52.548;13.408;2023-03-14T07:09:09;12.10;99.90
2106;DHT22;1059;52.548;13.408;2023-03-14T07:11:36;12.10;99.90
2106;DHT22;1059;52.548;13.408;2023-03-14T07:14:03;12.20;99.90
2106;DHT22;1059;52.548;13.408;2023-03-14T07:16:30;12.20;99.90
2106;DHT22;1059;52.548;13.408;2023-03-14T07:18:58;12.20;99.90
2106;DHT22;1059;52.548;13.408;2023-03-14T07:21:27;12.20;99.90
2106;DHT22;1059;52.548;13.408;2023-03-14T07:23:54;12.10;99.90
2106;DHT22;1059;52.548;13.408;2023-03-14T07:26:21;12.00;99.90
2106;DHT22;1059;52.548;13.408;2023-03-14T07:28:48;12.00;99.90
2106;DHT22;1059;52.548;13.408;2023-03-14T07:31:15;12.10;99.90
2106;DHT22;1059;52.548;13.408;2023-03-14T07:33:42;12.10;99.90
2106;DHT22;1059;52.548;13.408;2023-03-14T07:36:09;12.10;99.90
2106;DHT22;1059;52.548;13.408;2023-03-14T07:38:37;12.00;99.90
2106;DHT22;1059;52.548;13.408;2023-03-14T07:41:05;12.10;99.90
2106;DHT22;1059;52.548;13.408;2023-03-14T07:43:32;12.10;99.90
2106;DHT22;1059;52.548;13.408;2023-03-14T07:45:59;12.00;99.90
2106;DHT22;1059;52.548;13.408;2023-03-14T07:48:26;12.00;99.90
2106;DHT22;1059;52.548;13.408;2023-03-14T07:50:54;12.00;99.90
2106;DHT22;1059;52.548;13.408;2023-03-14T07:53:21;12.00;99.90
2106;DHT22;1059;52.548;13.408;2023-03-14T07:55:50;12.00;99.90
2106;DHT22;1059;52.548;13.408;2023-03-14T07:58:18;12.00;99.90
2106;DHT22;1059;52.548;13.408;2023-03-14T08:00:45;12.00;99.90
2106;DHT22;1059;52.548;13.408;2023-03-14T08:03:12;12.10;99.90
2106;DHT22;1059;52.548;13.408;2023-03-14T08:05:39;12.10;99.90
2106;DHT22;1059;52.548;13.408;2023-03-14T08:08:07;12.20;99.90
2106;DHT22;1059;52.548;13.408;2023-03-14T08:10:34;12.20;99.90
2106;DHT22;1059;52.548;13.408;2023-03-14T08:13:03;12.30;99.90
2106;DHT22;1059;52.548;13.408;2023-03-14T08:15:30;12.30;99.90
2106;DHT22;1059;52.548;13.408;2023-03-14T08:17:57;12.30;99.90
2106;DHT22;1059;52.548;13.408;2023-03-14T08:20:27;12.40;99.90
2106;DHT22;1059;52.548;13.408;2023-03-14T08:22:55;12.50;99.90
2106;DHT22;1059;52.548;13.408;2023-03-14T08:25:23;12.50;99.90
2106;DHT22;1059;52.548;13.408;2023-03-14T08:27:50;12.70;99.90
2106;DHT22;1059;52.548;13.408;2023-03-14T08:30:19;12.70;99.90
2106;DHT22;1059;52.548;13.408;2023-03-14T08:32:46;12.70;99.90
2106;DHT22;1059;52.548;13.408;2023-03-14T08:35:14;12.70;99.90
2106;DHT22;1059;52.548;13.408;2023-03-14T08:37:41;12.70;99.90
2106;DHT22;1059;52.548;13.408;2023-03-14T08:40:09;12.70;99.90
2106;DHT22;1059;52.548;13.408;2023-03-14T08:42:37;12.70;99.90
2106;DHT22;1059;52.548;13.408;2023-03-14T08:45:06;12.70;99.90
2106;DHT22;1059;52.548;13.408;2023-03-14T08:47:34;12.70;99.90
2106;DHT22;1059;52.548;13.408;2023-03-14T08:50:02;12.70;99.90
2106;DHT22;1059;52.548;13.408;2023-03-14T08:52:29;12.70;99.90
2106;DHT22;1059;52.548;13.408;2023-03-14T08:54:57;12.60;99.90
2106;DHT22;1059;52.548;13.408;2023-03-14T08:57:24;12.60;99.90
2106;DHT22;1059;52.548;13.408;2023-03-14T08:59:53;12.70;99.90
2106;DHT22;1059;52.548;13.408;2023-03-14T09:02:20;12.70;99.90
2106;DHT22;1059;52.548;13.408;2023-03-14T09:04:50;12.60;99.90
2106;DHT22;1059;52.548;13.408;2023-03-14T09:07:17;12.50;99.90
2106;DHT22;1059;52.548;13.408;2023-03-14T09:09:44;12.50;99.90
2106;DHT22;1059;52.548;13.408;2023-03-14T09:12:11;12.60;99.90
2106;DHT22;1059;52.548;13.408;2023-03-14T09:14:38;12.60;99.90
2106;DHT22;1059;52.548;13.408;2023-03-14T09:17:05;12.80;99.90
2106;DHT22;1059;52.548;13.408;2023-03-14T09:19:31;13.00;99.90
2106;DHT22;1059;52.548;13.408;2023-03-14T09:22:00;13.00;99.90
2106;DHT22;1059;52.548;13.408;2023-03-14T09:24:26;13.00;99.90
2106;DHT22;1059;52.548;13.408;2023-03-14T09:26:54;13.00;99.90
2106;DHT22;1059;52.548;13.408;2023-03-14T09:29:22;13.10;99.90
2106;DHT22;1059;52.548;13.408;2023-03-14T09:31:49;13.10;99.90
2106;DHT22;1059;52.548;13.408;2023-03-14T09:34:16;13.10;99.90
2106;DHT22;1059;52.548;13.408;2023-03-14T09:36:44;13.20;99.90
2106;DHT22;1059;52.548;13.408;2023-03-14T09:39:12;13.30;99.90
2106;DHT22;1059;52.548;13.408;2023-03-14T09:41:41;13.30;99.90
2106;DHT22;1059;52.548;13.408;2023-03-14T09:44:13;13.40;99.90
2106;DHT22;1059;52.548;13.408;2023-03-14T09:46:43;13.60;99.90
2106;DHT22;1059;52.548;13.408;2023-03-14T09:49:18;13.80;99.90
2106;DHT22;1059;52.548;13.408;2023-03-14T09:51:47;13.80;99.90
2106;DHT22;1059;52.548;13.408;2023-03-14T09:54:30;13.80;99.90
2106;DHT22;1059;52.548;13.408;2023-03-14T09:56:57;13.70;99.90
2106;DHT22;1059;52.548;13.408;2023-03-14T09:59:25;13.70;99.90
2106;DHT22;1059;52.548;13.408;2023-03-14T10:01:52;13.70;99.90
2106;DHT22;1059;52.548;13.408;2023-03-14T10:04:21;13.60;99.90
2106;DHT22;1059;52.548;13.408;2023-03-14T10:06:49;13.60;99.90
2106;DHT22;1059;52.548;13.408;2023-03-14T10:09:20;13.60;99.90
2106;DHT22;1059;52.548;13.408;2023-03-14T10:11:53;13.60;99.90
2106;DHT22;1059;52.548;13.408;2023-03-14T10:14:30;13.60;99.90
2106;DHT22;1059;52.548;13.408;2023-03-14T10:17:05;13.60;99.90
2106;DHT22;1059;52.548;13.408;2023-03-14T10:19:33;13.60;99.90
2106;DHT22;1059;52.548;13.408;2023-03-14T10:22:02;13.60;99.90
2106;DHT22;1059;52.548;13.408;2023-03-14T10:24:32;13.70;99.90
2106;DHT22;1059;52.548;13.408;2023-03-14T10:27:01;13.70;99.90
2106;DHT22;1059;52.548;13.408;2023-03-14T10:29:29;13.70;99.90
2106;DHT22;1059;52.548;13.408;2023-03-14T10:31:59;13.70;99.90
2106;DHT22;1059;52.548;13.408;2023-03-14T10:34:29;13.70;99.90
2106;DHT22;1059;52.548;13.408;2023-03-14T10:36:57;13.80;99.90
2106;DHT22;1059;52.548;13.408;2023-03-14T10:39:30;13.70;99.90
2106;DHT22;1059;52.548;13.408;2023-03-14T10:42:04;13.70;99.90
2106;DHT22;1059;52.548;13.408;2023-03-14T10:44:33;13.70;99.90
2106;DHT22;1059;52.548;13.408;2023-03-14T10:47:02;13.70;99.90
2106;DHT22;1059;52.548;13.408;2023-03-14T10:49:31;13.70;99.90
2106;DHT22;1059;52.548;13.408;2023-03-14T10:52:03;13.70;99.90
2106;DHT22;1059;52.548;13.408;2023-03-14T10:54:40;13.70;99.90
2106;DHT22;1059;52.548;13.408;2023-03-14T10:57:11;13.60;99.90
2106;DHT22;1059;52.548;13.408;2023-03-14T10:59:40;13.60;99.90
2106;DHT22;1059;52.548;13.408;2023-03-14T11:02:25;13.60;99.90
2106;DHT22;1059;52.548;13.408;2023-03-14T11:05:02;13.50;99.90
2106;DHT22;1059;52.548;13.408;2023-03-14T11:07:35;13.60;99.90
2106;DHT22;1059;52.548;13.408;2023-03-14T11:10:11;13.60;99.90
2106;DHT22;1059;52.548;13.408;2023-03-14T11:12:47;13.60;99.90
2106;DHT22;1059;52.548;13.408;2023-03-14T11:15:19;13.60;99.90
2106;DHT22;1059;52.548;13.408;2023-03-14T11:17:57;13.60;99.90
2106;DHT22;1059;52.548;13.408;2023-03-14T11:20:32;13.60;99.90
2106;DHT22;1059;52.548;13.408;2023-03-14T11:23:10;13.60;99.90
2106;DHT22;1059;52.548;13.408;2023-03-14T11:25:44;13.60;99.90
2106;DHT22;1059;52.548;13.408;2023-03-14T11:28:18;13.70;99.90
2106;DHT22;1059;52.548;13.408;2023-03-14T11:30:51;13.70;99.90
2106;DHT22;1059;52.548;13.408;2023-03-14T11:33:22;13.70;99.90
2106;DHT22;1059;52.548;13.408;2023-03-14T11:35:58;13.70;99.90
2106;DHT22;1059;52.548;13.408;2023-03-14T11:38:30;13.80;99.90
2106;DHT22;1059;52.548;13.408;2023-03-14T11:41:00;13.80;99.90
2106;DHT22;1059;52.548;13.408;2023-03-14T11:43:30;13.60;99.90
2106;DHT22;1059;52.548;13.408;2023-03-14T11:46:03;13.60;99.90
2106;DHT22;1059;52.548;13.408;2023-03-14T11:48:37;13.60;99.90
2106;DHT22;1059;52.548;13.408;2023-03-14T11:51:11;13.70;99.90
2106;DHT22;1059;52.548;13.408;2023-03-14T11:53:51;13.70;99.90
2106;DHT22;1059;52.548;13.408;2023-03-14T11:56:27;13.70;99.90
2106;DHT22;1059;52.548;13.408;2023-03-14T11:58:58;13.70;99.90
2106;DHT22;1059;52.548;13.408;2023-03-14T12:01:33;13.70;99.90
2106;DHT22;1059;52.548;13.408;2023-03-14T12:04:05;13.60;99.90
2106;DHT22;1059;52.548;13.408;2023-03-14T12:06:40;13.60;99.90
2106;DHT22;1059;52.548;13.408;2023-03-14T12:09:11;13.70;99.90
2106;DHT22;1059;52.548;13.408;2023-03-14T12:11:43;13.70;99.90
2106;DHT22;1059;52.548;13.408;2023-03-14T12:14:22;13.70;99.90
2106;DHT22;1059;52.548;13.408;2023-03-14T12:16:55;13.80;99.90
2106;DHT22;1059;52.548;13.408;2023-03-14T12:19:35;13.90;99.90
2106;DHT22;1059;52.548;13.408;2023-03-14T12:22:12;13.90;99.90
2106;DHT22;1059;52.548;13.408;2023-03-14T12:24:45;13.90;99.90
2106;DHT22;1059;52.548;13.408;2023-03-14T12:30:25;13.70;99.90
2106;DHT22;1059;52.548;13.408;2023-03-14T12:33:27;13.70;99.90
2106;DHT22;1059;52.548;13.408;2023-03-14T12:38:52;13.80;99.90
2106;DHT22;1059;52.548;13.408;2023-03-14T12:41:27;13.80;99.90
2106;DHT22;1059;52.548;13.408;2023-03-14T12:44:02;14.00;99.90
2106;DHT22;1059;52.548;13.408;2023-03-14T12:46:49;14.00;99.90
2106;DHT22;1059;52.548;13.408;2023-03-14T12:49:16;14.30;99.90
2106;DHT22;1059;52.548;13.408;2023-03-14T12:51:43;14.30;99.90
2106;DHT22;1059;52.548;13.408;2023-03-14T12:54:29;14.30;99.90
2106;DHT22;1059;52.548;13.408;2023-03-14T12:57:09;14.30;99.90
2106;DHT22;1059;52.548;13.408;2023-03-14T12:59:46;14.20;99.90
2106;DHT22;1059;52.548;13.408;2023-03-14T13:02:22;14.10;99.90
2106;DHT22;1059;52.548;13.408;2023-03-14T13:04:52;14.10;99.90
2106;DHT22;1059;52.548;13.408;2023-03-14T13:07:34;14.10;99.90
2106;DHT22;1059;52.548;13.408;2023-03-14T13:10:19;13.90;99.90
2106;DHT22;1059;52.548;13.408;2023-03-14T13:12:52;13.40;99.90
2106;DHT22;1059;52.548;13.408;2023-03-14T13:15:26;13.00;99.90
2106;DHT22;1059;52.548;13.408;2023-03-14T13:17:56;12.80;99.90
2106;DHT22;1059;52.548;13.408;2023-03-14T13:20:30;12.50;99.90
2106;DHT22;1059;52.548;13.408;2023-03-14T13:22:58;12.40;99.90
2106;DHT22;1059;52.548;13.408;2023-03-14T13:25:29;12.30;99.90
2106;DHT22;1059;52.548;13.408;2023-03-14T13:27:56;12.30;99.90
2106;DHT22;1059;52.548;13.408;2023-03-14T13:30:26;12.30;99.90
2106;DHT22;1059;52.548;13.408;2023-03-14T13:32:54;12.30;99.90
2106;DHT22;1059;52.548;13.408;2023-03-14T13:35:24;12.70;99.90
2106;DHT22;1059;52.548;13.408;2023-03-14T13:38:01;13.60;99.90
2106;DHT22;1059;52.548;13.408;2023-03-14T13:40:31;15.00;99.90
2106;DHT22;1059;52.548;13.408;2023-03-14T13:43:01;16.10;99.90
2106;DHT22;1059;52.548;13.408;2023-03-14T13:45:30;17.10;99.90
2106;DHT22;1059;52.548;13.408;2023-03-14T13:47:57;17.90;99.90
2106;DHT22;1059;52.548;13.408;2023-03-14T13:50:24;18.80;99.90
2106;DHT22;1059;52.548;13.408;2023-03-14T13:52:55;18.50;99.90
2106;DHT22;1059;52.548;13.408;2023-03-14T13:55:23;18.30;99.90
2106;DHT22;1059;52.548;13.408;2023-03-14T13:57:51;18.20;99.90
2106;DHT22;1059;52.548;13.408;2023-03-14T14:00:22;18.30;99.90
2106;DHT22;1059;52.548;13.408;2023-03-14T14:02:53;18.30;99.90
2106;DHT22;1059;52.548;13.408;2023-03-14T14:05:21;18.40;99.90
2106;DHT22;1059;52.548;13.408;2023-03-14T14:07:49;18.80;99.90
2106;DHT22;1059;52.548;13.408;2023-03-14T14:10:16;18.90;99.90
2106;DHT22;1059;52.548;13.408;2023-03-14T14:12:47;18.90;99.90
2106;DHT22;1059;52.548;13.408;2023-03-14T14:15:19;18.70;99.90
2106;DHT22;1059;52.548;13.408;2023-03-14T14:17:49;18.20;99.90
2106;DHT22;1059;52.548;13.408;2023-03-14T14:20:22;18.30;99.90
2106;DHT22;1059;52.548;13.408;2023-03-14T14:22:50;18.10;99.90
2106;DHT22;1059;52.548;13.408;2023-03-14T14:25:18;18.10;99.90
2106;DHT22;1059;52.548;13.408;2023-03-14T14:27:48;18.20;99.90
2106;DHT22;1059;52.548;13.408;2023-03-14T14:30:28;17.80;99.90
2106;DHT22;1059;52.548;13.408;2023-03-14T14:33:11;16.50;99.90
2106;DHT22;1059;52.548;13.408;2023-03-14T14:35:40;16.00;99.90
2106;DHT22;1059;52.548;13.408;2023-03-14T14:38:12;15.60;99.90
2106;DHT22;1059;52.548;13.408;2023-03-14T14:40:44;15.10;99.90
2106;DHT22;1059;52.548;13.408;2023-03-14T14:43:16;14.90;99.90
2106;DHT22;1059;52.548;13.408;2023-03-14T14:45:43;14.70;99.90
2106;DHT22;1059;52.548;13.408;2023-03-14T14:48:13;14.60;99.90
2106;DHT22;1059;52.548;13.408;2023-03-14T14:50:50;14.60;99.90
2106;DHT22;1059;52.548;13.408;2023-03-14T14:53:22;14.50;99.90
2106;DHT22;1059;52.548;13.408;2023-03-14T14:55:51;14.40;99.90
2106;DHT22;1059;52.548;13.408;2023-03-14T14:58:23;14.30;99.90
2106;DHT22;1059;52.548;13.408;2023-03-14T15:00:54;14.20;99.90
2106;DHT22;1059;52.548;13.408;2023-03-14T15:03:21;14.20;99.90
2106;DHT22;1059;52.548;13.408;2023-03-14T15:05:50;14.10;99.90
2106;DHT22;1059;52.548;13.408;2023-03-14T15:08:16;14.10;99.90
2106;DHT22;1059;52.548;13.408;2023-03-14T15:10:43;14.00;99.90
2106;DHT22;1059;52.548;13.408;2023-03-14T15:13:10;14.00;99.90
2106;DHT22;1059;52.548;13.408;2023-03-14T15:15:37;14.00;99.90
2106;DHT22;1059;52.548;13.408;2023-03-14T15:18:12;14.00;99.90
2106;DHT22;1059;52.548;13.408;2023-03-14T15:20:39;13.70;99.90
2106;DHT22;1059;52.548;13.408;2023-03-14T15:23:11;10.70;99.90
2106;DHT22;1059;52.548;13.408;2023-03-14T15:25:38;8.80;99.90
2106;DHT22;1059;52.548;13.408;2023-03-14T15:28:13;8.10;99.90
2106;DHT22;1059;52.548;13.408;2023-03-14T15:30:40;7.70;99.90
2106;DHT22;1059;52.548;13.408;2023-03-14T15:33:07;7.50;99.90
2106;DHT22;1059;52.548;13.408;2023-03-14T15:35:34;7.20;99.90
2106;DHT22;1059;52.548;13.408;2023-03-14T15:38:01;7.00;99.90
2106;DHT22;1059;52.548;13.408;2023-03-14T15:40:29;6.80;99.90
2106;DHT22;1059;52.548;13.408;2023-03-14T15:42:57;6.50;99.90
2106;DHT22;1059;52.548;13.408;2023-03-14T15:45:24;6.30;99.90
2106;DHT22;1059;52.548;13.408;2023-03-14T15:47:50;6.20;99.90
2106;DHT22;1059;52.548;13.408;2023-03-14T15:50:17;6.10;99.90
2106;DHT22;1059;52.548;13.408;2023-03-14T15:52:44;6.10;99.90
2106;DHT22;1059;52.548;13.408;2023-03-14T15:55:11;5.70;99.90
2106;DHT22;1059;52.548;13.408;2023-03-14T15:57:42;5.30;99.90
2106;DHT22;1059;52.548;13.408;2023-03-14T16:00:11;4.80;99.90
2106;DHT22;1059;52.548;13.408;2023-03-14T16:02:40;4.40;99.90
2106;DHT22;1059;52.548;13.408;2023-03-14T16:05:08;4.10;99.90